Time;durP1;ratioP1;P1;durP2;ratioP2;P2;SDS_P1;SDS_P2;PMS_P1;PMS_P2;Temp;Humidity;BMP_temperature;BMP_pressure;BME280_temperature;BME280_humidity;BME280_pressure;Samples;Min_cycle;Max_cycle;Signal;HPM_P1;HPM_P2
2023/05/01 00:00:34;;;;;;;20.77;12.63;;;;;;;;;;4996060;28;20683;-54
2023/05/01 00:03:00;;;;;;;18.20;12.77;;;;;;;;;;4978953;28;20189;-55
2023/05/01 00:05:27;;;;;;;19.00;13.30;;;;;;;;;;4996112;28;20212;-55
2023/05/01 00:07:52;;;;;;;17.92;12.25;;;;;;;;;;4995380;28;20211;-55
2023/05/01 00:10:19;;;;;;;19.02;12.98;;;;;;;;;;4995037;28;20185;-55
2023/05/01 00:12:44;;;;;;;18.65;13.60;;;;;;;;;;4995044;28;20557;-55
2023/05/01 00:15:10;;;;;;;20.42;13.63;;;;;;;;;;4995786;28;20185;-55
2023/05/01 00:17:36;;;;;;;19.83;13.32;;;;;;;;;;4993959;28;20244;-55
2023/05/01 00:20:04;;;;;;;19.73;12.35;;;;;;;;;;4995771;28;20188;-55
2023/05/01 00:22:29;;;;;;;19.77;13.38;;;;;;;;;;4995376;28;20587;-55
2023/05/01 00:24:55;;;;;;;20.88;13.73;;;;;;;;;;4995770;28;20193;-55
2023/05/01 00:27:21;;;;;;;22.63;14.20;;;;;;;;;;4993787;28;20205;-55
2023/05/01 00:29:47;;;;;;;21.98;14.05;;;;;;;;;;4995724;28;20589;-55
2023/05/01 00:32:14;;;;;;;19.83;13.27;;;;;;;;;;4994680;28;20260;-55
2023/05/01 00:34:40;;;;;;;22.60;14.65;;;;;;;;;;4994690;28;20209;-55
2023/05/01 00:37:06;;;;;;;19.63;13.75;;;;;;;;;;4994103;28;20185;-55
2023/05/01 00:39:32;;;;;;;20.65;14.38;;;;;;;;;;4994653;28;20189;-55
2023/05/01 00:41:58;;;;;;;19.67;14.15;;;;;;;;;;4995273;28;20189;-55
2023/05/01 00:44:24;;;;;;;20.67;14.00;;;;;;;;;;4995127;28;20196;-54
2023/05/01 00:46:50;;;;;;;18.45;13.77;;;;;;;;;;4994554;28;20567;-55
2023/05/01 00:49:16;;;;;;;19.17;14.43;;;;;;;;;;4994474;28;20185;-55
2023/05/01 00:51:42;;;;;;;20.23;15.15;;;;;;;;;;4992850;28;20684;-55
2023/05/01 00:54:08;;;;;;;21.95;14.80;;;;;;;;;;4994004;28;20553;-55
2023/05/01 00:56:34;;;;;;;20.08;13.77;;;;;;;;;;4993742;28;20197;-55
2023/05/01 00:59:00;;;;;;;19.98;14.65;;;;;;;;;;4992539;28;20177;-55
2023/05/01 01:01:27;;;;;;;22.10;14.35;;;;;;;;;;4992621;28;20246;-55
2023/05/01 01:03:53;;;;;;;21.20;14.18;;;;;;;;;;4994846;28;20710;-55
2023/05/01 01:06:38;;;;;;;22.17;14.15;;;;;;;;;;4994644;28;20204;-55
2023/05/01 01:09:13;;;;;;;23.85;15.15;;;;;;;;;;4990675;28;20579;-55
2023/05/01 01:11:47;;;;;;;21.58;15.45;;;;;;;;;;4994150;28;20432;-55
2023/05/01 01:14:19;;;;;;;22.83;15.07;;;;;;;;;;4994453;28;20200;-54
2023/05/01 01:16:48;;;;;;;20.25;15.05;;;;;;;;;;4993366;28;20184;-54
2023/05/01 01:19:19;;;;;;;19.60;14.43;;;;;;;;;;4993593;28;20268;-55
2023/05/01 01:21:49;;;;;;;21.75;14.73;;;;;;;;;;4993586;28;20227;-55
2023/05/01 01:24:41;;;;;;;21.15;14.93;;;;;;;;;;4994453;28;20192;-55
2023/05/01 01:27:12;;;;;;;21.17;15.48;;;;;;;;;;4990679;28;20494;-54
2023/05/01 01:29:44;;;;;;;20.88;14.73;;;;;;;;;;4997769;28;20185;-54
2023/05/01 01:32:32;;;;;;;21.88;15.18;;;;;;;;;;4997702;28;20251;-54
2023/05/01 01:35:10;;;;;;;20.92;15.60;;;;;;;;;;4998315;28;20209;-54
2023/05/01 01:37:40;;;;;;;21.60;15.57;;;;;;;;;;4992163;28;20234;-54
2023/05/01 01:40:10;;;;;;;25.02;16.60;;;;;;;;;;4997766;28;20173;-54
2023/05/01 01:42:41;;;;;;;23.85;15.30;;;;;;;;;;4996513;28;20475;-54
2023/05/01 01:45:19;;;;;;;23.48;16.08;;;;;;;;;;4997889;28;20192;-54
2023/05/01 01:47:46;;;;;;;22.75;15.77;;;;;;;;;;4997577;28;20212;-54
2023/05/01 01:50:14;;;;;;;22.85;16.73;;;;;;;;;;4997361;28;20184;-54
2023/05/01 01:52:41;;;;;;;22.48;15.93;;;;;;;;;;4996913;28;20212;-54
2023/05/01 01:55:12;;;;;;;24.45;16.65;;;;;;;;;;4997700;28;20211;-54
2023/05/01 01:57:41;;;;;;;23.02;16.02;;;;;;;;;;4995495;28;20505;-54
2023/05/01 02:00:09;;;;;;;22.08;15.95;;;;;;;;;;4996667;28;20567;-54
2023/05/01 02:02:36;;;;;;;24.75;16.80;;;;;;;;;;4996705;28;20746;-54
2023/05/01 02:05:03;;;;;;;23.20;15.50;;;;;;;;;;4997532;28;20193;-54
2023/05/01 02:07:30;;;;;;;22.83;16.52;;;;;;;;;;4997918;28;20623;-54
2023/05/01 02:09:57;;;;;;;22.83;16.23;;;;;;;;;;4997231;28;20181;-54
2023/05/01 02:12:25;;;;;;;23.48;16.30;;;;;;;;;;4998055;28;20652;-54
2023/05/01 02:14:52;;;;;;;24.27;17.23;;;;;;;;;;4997452;28;20170;-54
2023/05/01 02:17:19;;;;;;;22.33;16.52;;;;;;;;;;4997209;28;20210;-54
2023/05/01 02:19:46;;;;;;;24.17;16.23;;;;;;;;;;4996483;28;20689;-54
2023/05/01 02:22:13;;;;;;;22.77;16.20;;;;;;;;;;4998369;28;20181;-54
2023/05/01 02:24:39;;;;;;;23.17;16.25;;;;;;;;;;4996877;28;20185;-54
2023/05/01 02:27:16;;;;;;;24.13;16.48;;;;;;;;;;4996893;28;20200;-54
2023/05/01 02:29:43;;;;;;;23.08;17.00;;;;;;;;;;4993810;28;20187;-53
2023/05/01 02:32:09;;;;;;;22.55;16.63;;;;;;;;;;4997360;28;20177;-53
2023/05/01 02:34:35;;;;;;;27.60;16.88;;;;;;;;;;4996160;28;20212;-53
2023/05/01 02:37:01;;;;;;;24.77;16.85;;;;;;;;;;4996380;28;20182;-53
2023/05/01 02:39:27;;;;;;;22.60;16.33;;;;;;;;;;4995604;28;20173;-53
2023/05/01 02:41:55;;;;;;;23.25;16.17;;;;;;;;;;4997662;28;20212;-53
2023/05/01 02:44:22;;;;;;;24.02;17.30;;;;;;;;;;4995422;28;20463;-53
2023/05/01 02:46:49;;;;;;;24.67;16.80;;;;;;;;;;4997066;28;20195;-53
2023/05/01 02:49:17;;;;;;;21.40;16.25;;;;;;;;;;4995200;28;20244;-53
2023/05/01 02:51:43;;;;;;;25.75;16.80;;;;;;;;;;4997509;28;20256;-53
2023/05/01 02:54:09;;;;;;;22.90;16.35;;;;;;;;;;4996069;28;20193;-53
2023/05/01 02:56:35;;;;;;;23.92;16.88;;;;;;;;;;4997219;28;20208;-53
2023/05/01 02:59:01;;;;;;;21.73;16.50;;;;;;;;;;4995876;28;20173;-53
2023/05/01 03:01:27;;;;;;;23.45;16.67;;;;;;;;;;4996004;28;20256;-53
2023/05/01 03:03:53;;;;;;;21.25;16.52;;;;;;;;;;4997404;28;20275;-53
2023/05/01 03:06:19;;;;;;;20.58;15.85;;;;;;;;;;4997033;28;20200;-53
2023/05/01 03:08:46;;;;;;;22.05;16.25;;;;;;;;;;4996600;28;20299;-53
2023/05/01 03:11:12;;;;;;;21.98;16.90;;;;;;;;;;4996574;28;20174;-53
2023/05/01 03:13:38;;;;;;;22.40;16.25;;;;;;;;;;4995914;28;20624;-54
2023/05/01 03:16:04;;;;;;;23.98;17.13;;;;;;;;;;4997179;28;20291;-54
2023/05/01 03:18:30;;;;;;;23.83;17.00;;;;;;;;;;4995603;28;20192;-54
2023/05/01 03:20:56;;;;;;;24.65;17.45;;;;;;;;;;4995219;28;20268;-54
2023/05/01 03:23:22;;;;;;;25.80;18.25;;;;;;;;;;4995939;28;20886;-54
2023/05/01 03:25:48;;;;;;;25.52;17.45;;;;;;;;;;4997087;28;20208;-54
2023/05/01 03:28:15;;;;;;;26.20;16.75;;;;;;;;;;4995355;28;20291;-54
2023/05/01 03:30:41;;;;;;;21.75;16.55;;;;;;;;;;4995933;28;20269;-54
2023/05/01 03:33:07;;;;;;;24.55;17.10;;;;;;;;;;4996470;28;20185;-54
2023/05/01 03:35:33;;;;;;;22.35;17.23;;;;;;;;;;4995718;28;20205;-54
2023/05/01 03:37:59;;;;;;;24.63;17.35;;;;;;;;;;4995504;28;20245;-54
2023/05/01 03:40:25;;;;;;;70.88;26.50;;;;;;;;;;4994296;28;20200;-54
2023/05/01 03:42:51;;;;;;;85.55;28.52;;;;;;;;;;4995690;28;20324;-54
2023/05/01 03:45:17;;;;;;;60.88;25.15;;;;;;;;;;4995927;28;20173;-54
2023/05/01 03:47:43;;;;;;;59.97;24.00;;;;;;;;;;4994061;28;20216;-54
2023/05/01 03:50:10;;;;;;;48.38;22.90;;;;;;;;;;4995169;28;20227;-54
2023/05/01 03:52:36;;;;;;;51.13;23.92;;;;;;;;;;4996481;28;20181;-54
2023/05/01 03:55:02;;;;;;;50.65;23.15;;;;;;;;;;4995569;28;20558;-54
2023/05/01 03:57:28;;;;;;;47.45;23.27;;;;;;;;;;4994168;28;20208;-54
2023/05/01 03:59:53;;;;;;;46.33;23.80;;;;;;;;;;4995522;28;20307;-54
2023/05/01 04:02:20;;;;;;;45.08;22.15;;;;;;;;;;4995096;28;20189;-54
2023/05/01 04:04:45;;;;;;;43.85;21.80;;;;;;;;;;4996168;28;20223;-54
2023/05/01 04:07:12;;;;;;;47.88;23.08;;;;;;;;;;4995608;28;20570;-54
2023/05/01 04:09:38;;;;;;;51.15;23.60;;;;;;;;;;4995219;28;20184;-54
2023/05/01 04:12:04;;;;;;;52.05;23.75;;;;;;;;;;4994611;28;20182;-54
2023/05/01 04:14:30;;;;;;;49.47;22.98;;;;;;;;;;4994453;28;20264;-54
2023/05/01 04:16:57;;;;;;;47.20;23.15;;;;;;;;;;4995224;28;20189;-54
2023/05/01 04:19:23;;;;;;;54.58;23.88;;;;;;;;;;4993991;28;20185;-54
2023/05/01 04:21:49;;;;;;;50.67;24.10;;;;;;;;;;4994769;28;20195;-54
2023/05/01 04:24:15;;;;;;;53.13;24.33;;;;;;;;;;4994941;28;20199;-54
2023/05/01 04:26:41;;;;;;;51.15;24.25;;;;;;;;;;4995312;28;20236;-54
2023/05/01 04:29:07;;;;;;;61.35;27.08;;;;;;;;;;4993477;28;20205;-54
2023/05/01 04:31:33;;;;;;;59.28;25.10;;;;;;;;;;4994846;28;20173;-54
2023/05/01 04:33:59;;;;;;;50.72;25.48;;;;;;;;;;4995201;28;20188;-54
2023/05/01 04:36:25;;;;;;;54.08;25.63;;;;;;;;;;4995138;28;20189;-54
2023/05/01 04:38:51;;;;;;;58.55;25.48;;;;;;;;;;4994684;28;20193;-54
2023/05/01 04:41:18;;;;;;;61.42;26.67;;;;;;;;;;4977683;28;20264;-54
2023/05/01 04:43:44;;;;;;;51.20;25.00;;;;;;;;;;4995422;28;20182;-54
2023/05/01 04:46:10;;;;;;;50.88;25.70;;;;;;;;;;4994364;28;20196;-54
2023/05/01 04:48:36;;;;;;;53.35;25.30;;;;;;;;;;4993941;28;20315;-54
2023/05/01 04:51:02;;;;;;;51.35;24.08;;;;;;;;;;4994552;28;20604;-54
2023/05/01 04:53:28;;;;;;;53.58;25.23;;;;;;;;;;4995516;28;20180;-54
2023/05/01 04:55:54;;;;;;;44.45;23.27;;;;;;;;;;4994373;28;20197;-54
2023/05/01 04:58:20;;;;;;;47.05;23.95;;;;;;;;;;4994300;28;20235;-54
2023/05/01 05:00:46;;;;;;;48.97;25.17;;;;;;;;;;4994430;28;20185;-54
2023/05/01 05:03:12;;;;;;;45.35;23.08;;;;;;;;;;4994177;28;20189;-54
2023/05/01 05:05:38;;;;;;;46.97;23.75;;;;;;;;;;4994515;28;20188;-54
2023/05/01 05:08:05;;;;;;;51.03;23.50;;;;;;;;;;4994345;28;20197;-54
2023/05/01 05:10:31;;;;;;;45.67;24.02;;;;;;;;;;4994048;28;20177;-54
2023/05/01 05:12:57;;;;;;;48.83;22.75;;;;;;;;;;4995417;28;20553;-53
2023/05/01 05:15:22;;;;;;;47.58;23.80;;;;;;;;;;4994587;28;20492;-53
2023/05/01 05:17:48;;;;;;;40.10;23.85;;;;;;;;;;4993564;28;20557;-53
2023/05/01 05:20:14;;;;;;;41.47;22.17;;;;;;;;;;4992337;28;20272;-53
2023/05/01 05:22:40;;;;;;;40.22;22.77;;;;;;;;;;4992786;28;20553;-53
2023/05/01 05:25:06;;;;;;;41.85;22.70;;;;;;;;;;4993934;28;20200;-53
2023/05/01 05:27:36;;;;;;;40.00;21.85;;;;;;;;;;4976303;28;20635;-54
2023/05/01 05:30:04;;;;;;;41.05;21.70;;;;;;;;;;4994782;28;20196;-54
2023/05/01 05:32:30;;;;;;;38.30;22.17;;;;;;;;;;4992936;28;20183;-54
2023/05/01 05:34:56;;;;;;;38.97;21.33;;;;;;;;;;4994305;28;20193;-54
2023/05/01 05:37:23;;;;;;;33.80;21.00;;;;;;;;;;4993338;28;20608;-54
2023/05/01 05:39:49;;;;;;;38.80;22.25;;;;;;;;;;4994057;28;20476;-54
2023/05/01 05:42:14;;;;;;;36.42;20.75;;;;;;;;;;4993099;28;20263;-54
2023/05/01 05:44:40;;;;;;;38.30;20.63;;;;;;;;;;4993477;28;20196;-54
2023/05/01 05:47:06;;;;;;;35.85;21.45;;;;;;;;;;4993923;28;20289;-54
2023/05/01 05:49:32;;;;;;;40.90;22.13;;;;;;;;;;4993897;28;20232;-54
2023/05/01 05:51:58;;;;;;;38.17;20.85;;;;;;;;;;4993568;28;20178;-54
2023/05/01 05:54:24;;;;;;;36.22;20.48;;;;;;;;;;4994600;28;20537;-54
2023/05/01 05:56:50;;;;;;;33.53;20.50;;;;;;;;;;4993752;28;20264;-54
2023/05/01 05:59:17;;;;;;;39.80;21.23;;;;;;;;;;4993297;28;20292;-54
2023/05/01 06:01:43;;;;;;;35.92;20.27;;;;;;;;;;4993232;28;20603;-54
2023/05/01 06:04:10;;;;;;;35.97;19.65;;;;;;;;;;4993316;28;20233;-54
2023/05/01 06:06:36;;;;;;;32.88;19.48;;;;;;;;;;4993639;28;20281;-54
2023/05/01 06:09:02;;;;;;;30.42;19.50;;;;;;;;;;4993065;28;20528;-54
2023/05/01 06:11:28;;;;;;;33.72;19.70;;;;;;;;;;4994053;28;20706;-54
2023/05/01 06:13:55;;;;;;;33.15;19.33;;;;;;;;;;4994749;28;20185;-54
2023/05/01 06:16:21;;;;;;;32.05;20.17;;;;;;;;;;4996987;28;20200;-54
2023/05/01 06:18:47;;;;;;;30.27;18.88;;;;;;;;;;4996565;28;20193;-54
2023/05/01 06:21:13;;;;;;;28.27;17.73;;;;;;;;;;4997408;28;20196;-54
2023/05/01 06:23:39;;;;;;;33.03;19.40;;;;;;;;;;4996266;28;20235;-54
2023/05/01 06:26:05;;;;;;;33.83;19.58;;;;;;;;;;4997488;28;20181;-55
2023/05/01 06:28:31;;;;;;;32.53;19.33;;;;;;;;;;4993652;28;20209;-54
2023/05/01 06:30:57;;;;;;;31.55;19.02;;;;;;;;;;4998144;28;20173;-54
2023/05/01 06:33:22;;;;;;;27.67;17.90;;;;;;;;;;4996423;28;20219;-54
2023/05/01 06:35:48;;;;;;;29.08;17.80;;;;;;;;;;4996561;28;20184;-54
2023/05/01 06:38:14;;;;;;;31.27;18.92;;;;;;;;;;4996711;28;20192;-54
2023/05/01 06:40:40;;;;;;;30.88;18.77;;;;;;;;;;4997501;28;20545;-54
2023/05/01 06:43:06;;;;;;;31.13;18.20;;;;;;;;;;4992263;28;20276;-54
2023/05/01 06:45:32;;;;;;;32.85;18.00;;;;;;;;;;4996722;28;20449;-54
2023/05/01 06:47:58;;;;;;;27.85;17.42;;;;;;;;;;4996316;28;20197;-54
2023/05/01 06:50:24;;;;;;;31.50;17.80;;;;;;;;;;4997108;28;20178;-54
2023/05/01 06:52:50;;;;;;;26.70;17.35;;;;;;;;;;4996413;28;20192;-55
2023/05/01 06:55:16;;;;;;;30.85;17.83;;;;;;;;;;4996239;28;20347;-55
2023/05/01 06:57:42;;;;;;;29.67;17.70;;;;;;;;;;4995895;28;20189;-55
2023/05/01 07:00:09;;;;;;;28.73;16.88;;;;;;;;;;4996752;28;20177;-54
2023/05/01 07:02:36;;;;;;;28.45;17.25;;;;;;;;;;4995419;28;20195;-54
2023/05/01 07:05:02;;;;;;;25.45;16.63;;;;;;;;;;4995915;28;20201;-54
2023/05/01 07:07:29;;;;;;;27.67;16.98;;;;;;;;;;4995450;28;20236;-54
2023/05/01 07:09:55;;;;;;;23.75;15.70;;;;;;;;;;4997015;28;20239;-54
2023/05/01 07:12:22;;;;;;;30.10;16.58;;;;;;;;;;4996358;28;20193;-55
2023/05/01 07:14:48;;;;;;;25.92;16.58;;;;;;;;;;4995196;28;20173;-54
2023/05/01 07:17:14;;;;;;;26.58;16.98;;;;;;;;;;4995772;28;20264;-54
2023/05/01 07:19:40;;;;;;;26.25;15.88;;;;;;;;;;4996239;28;20189;-54
2023/05/01 07:22:06;;;;;;;25.13;16.20;;;;;;;;;;4995970;28;20187;-55
2023/05/01 07:24:32;;;;;;;24.75;15.45;;;;;;;;;;4996309;28;20177;-55
2023/05/01 07:26:58;;;;;;;25.58;16.73;;;;;;;;;;4995794;28;20234;-55
2023/05/01 07:29:24;;;;;;;22.55;14.85;;;;;;;;;;4994484;28;20212;-54
2023/05/01 07:31:50;;;;;;;21.77;14.95;;;;;;;;;;4996711;28;20177;-54
2023/05/01 07:34:18;;;;;;;24.10;15.82;;;;;;;;;;4995450;28;20268;-55
2023/05/01 07:36:44;;;;;;;25.30;15.52;;;;;;;;;;4996610;28;20184;-55
2023/05/01 07:39:10;;;;;;;22.48;14.82;;;;;;;;;;4994858;28;20450;-55
2023/05/01 07:41:36;;;;;;;19.90;14.55;;;;;;;;;;4993931;28;20192;-55
2023/05/01 07:44:01;;;;;;;23.50;14.05;;;;;;;;;;4995823;28;20264;-57
2023/05/01 07:46:28;;;;;;;21.63;12.57;;;;;;;;;;4979548;28;20199;-57
2023/05/01 07:48:54;;;;;;;19.73;13.25;;;;;;;;;;4993065;28;20531;-59
2023/05/01 07:51:20;;;;;;;18.30;12.77;;;;;;;;;;4995069;28;20193;-59
2023/05/01 07:53:47;;;;;;;20.73;12.23;;;;;;;;;;4990782;28;20185;-59
2023/05/01 07:56:13;;;;;;;15.55;10.68;;;;;;;;;;4995621;28;20227;-59
2023/05/01 07:58:42;;;;;;;18.63;10.93;;;;;;;;;;4994072;28;20433;-59
2023/05/01 08:01:09;;;;;;;12.57;8.52;;;;;;;;;;4995279;28;20185;-59
2023/05/01 08:03:34;;;;;;;9.77;6.78;;;;;;;;;;4995207;28;20189;-59
2023/05/01 08:06:00;;;;;;;7.53;5.35;;;;;;;;;;4996156;28;20549;-59
2023/05/01 08:08:26;;;;;;;7.40;4.82;;;;;;;;;;4993001;28;20204;-59
2023/05/01 08:10:52;;;;;;;7.70;4.57;;;;;;;;;;4995478;28;20232;-59
2023/05/01 08:13:18;;;;;;;6.18;4.45;;;;;;;;;;4995143;28;20419;-59
2023/05/01 08:15:47;;;;;;;8.30;4.90;;;;;;;;;;4989245;28;20189;-59
2023/05/01 08:18:19;;;;;;;6.15;4.68;;;;;;;;;;4995152;28;20200;-59
2023/05/01 08:20:49;;;;;;;6.60;4.47;;;;;;;;;;4995943;28;20263;-59
2023/05/01 08:23:15;;;;;;;7.53;4.75;;;;;;;;;;4995403;28;20292;-59
2023/05/01 08:25:41;;;;;;;7.45;4.82;;;;;;;;;;4995504;28;20217;-59
2023/05/01 08:28:07;;;;;;;5.07;4.30;;;;;;;;;;4994746;28;20477;-59
2023/05/01 08:30:33;;;;;;;7.25;4.63;;;;;;;;;;4994834;28;20467;-59
2023/05/01 08:32:59;;;;;;;6.88;4.65;;;;;;;;;;4994624;28;20518;-59
2023/05/01 08:35:25;;;;;;;5.50;4.35;;;;;;;;;;4994877;28;20231;-59
2023/05/01 08:37:51;;;;;;;5.82;4.60;;;;;;;;;;4993238;28;20177;-59
2023/05/01 08:40:17;;;;;;;7.15;4.65;;;;;;;;;;4994655;28;20231;-59
2023/05/01 08:42:43;;;;;;;5.38;4.28;;;;;;;;;;4993605;28;20189;-59
2023/05/01 08:45:10;;;;;;;6.32;4.80;;;;;;;;;;4995315;28;20196;-59
2023/05/01 08:47:37;;;;;;;9.55;4.55;;;;;;;;;;4993799;28;20200;-59
2023/05/01 08:50:03;;;;;;;6.15;4.43;;;;;;;;;;4994683;28;20215;-59
2023/05/01 08:52:29;;;;;;;6.28;4.63;;;;;;;;;;4994529;28;20231;-59
2023/05/01 08:54:56;;;;;;;6.60;4.95;;;;;;;;;;4994656;28;20280;-59
2023/05/01 08:57:24;;;;;;;5.43;4.50;;;;;;;;;;4993617;28;20185;-59
2023/05/01 08:59:50;;;;;;;7.38;4.20;;;;;;;;;;4993891;28;20260;-59
2023/05/01 09:02:16;;;;;;;9.27;4.57;;;;;;;;;;4993248;28;20231;-59
2023/05/01 09:04:42;;;;;;;5.15;4.47;;;;;;;;;;4994206;28;20196;-59
2023/05/01 09:07:09;;;;;;;5.38;4.47;;;;;;;;;;4994397;28;20457;-59
2023/05/01 09:09:35;;;;;;;6.43;4.30;;;;;;;;;;4989650;28;20628;-59
2023/05/01 09:12:20;;;;;;;7.82;4.53;;;;;;;;;;4993614;28;20236;-59
2023/05/01 09:14:46;;;;;;;6.78;4.22;;;;;;;;;;4978295;28;20196;-59
2023/05/01 09:17:13;;;;;;;5.65;4.13;;;;;;;;;;4993868;28;20296;-59
2023/05/01 09:19:39;;;;;;;5.90;4.30;;;;;;;;;;4993436;28;20520;-59
2023/05/01 09:22:06;;;;;;;5.80;4.55;;;;;;;;;;4994756;28;20173;-59
2023/05/01 09:24:32;;;;;;;7.28;4.85;;;;;;;;;;4994392;28;20242;-58
2023/05/01 09:26:58;;;;;;;5.80;4.35;;;;;;;;;;4994022;28;20553;-59
2023/05/01 09:29:37;;;;;;;5.72;4.28;;;;;;;;;;4992759;28;20212;-58
2023/05/01 09:32:13;;;;;;;6.43;4.68;;;;;;;;;;4989009;28;20173;-59
2023/05/01 09:34:39;;;;;;;7.65;4.50;;;;;;;;;;4993807;28;20467;-59
2023/05/01 09:37:06;;;;;;;5.75;3.95;;;;;;;;;;4994751;28;20268;-58
2023/05/01 09:39:31;;;;;;;6.18;4.78;;;;;;;;;;4993738;28;20209;-58
2023/05/01 09:41:57;;;;;;;7.57;4.70;;;;;;;;;;4994070;28;20228;-58
2023/05/01 09:44:24;;;;;;;6.50;4.68;;;;;;;;;;4992074;28;20193;-59
2023/05/01 09:46:50;;;;;;;7.22;4.78;;;;;;;;;;4989771;28;20181;-58
2023/05/01 09:49:16;;;;;;;6.35;4.30;;;;;;;;;;4995178;28;20231;-58
2023/05/01 09:51:42;;;;;;;6.80;4.75;;;;;;;;;;4998566;28;20529;-58
2023/05/01 09:54:17;;;;;;;5.85;4.28;;;;;;;;;;4997820;28;20189;-58
2023/05/01 09:56:46;;;;;;;6.15;4.40;;;;;;;;;;4997573;28;20535;-58
2023/05/01 09:59:19;;;;;;;6.68;4.35;;;;;;;;;;4998003;28;20177;-58
2023/05/01 10:01:46;;;;;;;5.65;4.60;;;;;;;;;;4997997;28;20189;-58
2023/05/01 10:04:13;;;;;;;6.57;4.13;;;;;;;;;;4998368;28;20200;-58
2023/05/01 10:06:39;;;;;;;6.72;4.53;;;;;;;;;;4996572;28;20303;-58
2023/05/01 10:09:09;;;;;;;6.97;4.80;;;;;;;;;;4997859;28;20264;-59
2023/05/01 10:11:48;;;;;;;6.10;4.88;;;;;;;;;;4998477;28;20452;-59
2023/05/01 10:14:14;;;;;;;6.40;4.85;;;;;;;;;;4997942;28;20470;-59
2023/05/01 10:16:40;;;;;;;5.53;4.43;;;;;;;;;;4996860;28;20185;-59
2023/05/01 10:19:06;;;;;;;4.97;4.07;;;;;;;;;;4997537;28;20209;-59
2023/05/01 10:21:33;;;;;;;6.63;4.60;;;;;;;;;;4997382;28;20189;-59
2023/05/01 10:24:01;;;;;;;5.07;4.07;;;;;;;;;;4997903;28;20177;-58
2023/05/01 10:26:27;;;;;;;7.55;4.43;;;;;;;;;;4998958;28;20185;-58
2023/05/01 10:28:57;;;;;;;5.43;4.55;;;;;;;;;;4995781;28;20239;-59
2023/05/01 10:31:24;;;;;;;8.27;4.70;;;;;;;;;;4997176;28;20280;-58
2023/05/01 10:34:00;;;;;;;6.30;4.50;;;;;;;;;;4997300;28;20632;-58
2023/05/01 10:36:32;;;;;;;4.97;4.35;;;;;;;;;;4995564;28;20447;-58
2023/05/01 10:38:58;;;;;;;6.03;4.43;;;;;;;;;;4995455;28;20189;-58
2023/05/01 10:41:42;;;;;;;5.43;4.50;;;;;;;;;;4997372;28;20185;-58
2023/05/01 10:44:22;;;;;;;5.60;4.05;;;;;;;;;;4989831;28;20191;-58
2023/05/01 10:46:48;;;;;;;5.50;4.25;;;;;;;;;;4997409;28;20557;-58
2023/05/01 10:49:14;;;;;;;6.30;4.50;;;;;;;;;;4995743;28;20216;-59
2023/05/01 10:51:59;;;;;;;5.72;4.53;;;;;;;;;;4997193;28;20184;-58
2023/05/01 10:54:28;;;;;;;5.18;3.75;;;;;;;;;;4991890;28;20304;-59
2023/05/01 10:57:00;;;;;;;5.88;4.15;;;;;;;;;;4997410;28;20200;-59
2023/05/01 10:59:27;;;;;;;5.97;4.43;;;;;;;;;;4994995;28;20500;-59
2023/05/01 11:01:54;;;;;;;4.60;4.07;;;;;;;;;;4995254;28;20508;-58
2023/05/01 11:04:26;;;;;;;5.10;4.38;;;;;;;;;;4996188;28;20288;-58
2023/05/01 11:07:04;;;;;;;5.72;4.25;;;;;;;;;;4996852;28;20272;-58
2023/05/01 11:09:53;;;;;;;5.40;4.30;;;;;;;;;;4995064;28;20437;-57
2023/05/01 11:12:37;;;;;;;5.78;4.43;;;;;;;;;;4991402;28;20445;-58
2023/05/01 11:15:06;;;;;;;5.30;4.05;;;;;;;;;;4991591;28;20231;-57
2023/05/01 11:17:41;;;;;;;4.88;4.13;;;;;;;;;;4994553;28;20173;-57
2023/05/01 11:20:11;;;;;;;5.22;4.20;;;;;;;;;;4994498;28;20283;-57
2023/05/01 11:22:41;;;;;;;6.38;4.50;;;;;;;;;;4996548;28;20553;-58
2023/05/01 11:25:23;;;;;;;5.43;4.10;;;;;;;;;;4993879;28;20185;-58
2023/05/01 11:27:51;;;;;;;6.35;4.68;;;;;;;;;;4993644;28;20217;-58
2023/05/01 11:30:17;;;;;;;6.57;4.57;;;;;;;;;;4995652;28;20523;-58
2023/05/01 11:32:44;;;;;;;6.60;4.72;;;;;;;;;;4996013;28;20260;-58
2023/05/01 11:35:29;;;;;;;6.78;4.35;;;;;;;;;;4995250;28;20181;-58
2023/05/01 11:37:55;;;;;;;5.03;4.30;;;;;;;;;;4995078;28;20188;-58
2023/05/01 11:40:20;;;;;;;4.75;3.97;;;;;;;;;;4996243;28;20472;-58
2023/05/01 11:42:46;;;;;;;7.97;4.07;;;;;;;;;;4995592;28;20192;-58
2023/05/01 11:45:13;;;;;;;6.20;4.35;;;;;;;;;;4995305;28;20189;-58
2023/05/01 11:47:39;;;;;;;7.07;4.65;;;;;;;;;;4993988;28;20593;-58
2023/05/01 11:50:06;;;;;;;9.45;4.63;;;;;;;;;;4996558;28;20204;-58
2023/05/01 11:52:43;;;;;;;5.72;4.57;;;;;;;;;;4995899;28;20192;-58
2023/05/01 11:55:09;;;;;;;6.43;4.05;;;;;;;;;;4993330;28;20196;-58
2023/05/01 11:57:48;;;;;;;6.60;4.38;;;;;;;;;;4994613;28;20858;-58
2023/05/01 12:00:15;;;;;;;7.38;4.75;;;;;;;;;;4994631;28;20185;-58
2023/05/01 12:02:56;;;;;;;5.05;3.70;;;;;;;;;;4995700;28;20188;-58
2023/05/01 12:05:22;;;;;;;6.25;4.32;;;;;;;;;;4995216;28;20211;-57
2023/05/01 12:07:48;;;;;;;6.57;4.53;;;;;;;;;;4994338;28;20589;-58
2023/05/01 12:10:14;;;;;;;6.15;4.38;;;;;;;;;;4995721;28;20249;-57
2023/05/01 12:12:40;;;;;;;7.28;4.20;;;;;;;;;;4995065;28;20181;-59
2023/05/01 12:15:06;;;;;;;8.10;4.50;;;;;;;;;;4993242;28;20199;-58
2023/05/01 12:17:32;;;;;;;10.00;4.32;;;;;;;;;;4993268;28;20560;-58
2023/05/01 12:19:58;;;;;;;5.68;3.78;;;;;;;;;;4995425;28;20204;-58
2023/05/01 12:22:24;;;;;;;7.30;4.05;;;;;;;;;;4996068;28;20185;-58
2023/05/01 12:24:53;;;;;;;6.35;4.25;;;;;;;;;;4994865;28;20213;-58
2023/05/01 12:27:19;;;;;;;7.18;4.53;;;;;;;;;;4990297;28;20177;-58
2023/05/01 12:29:46;;;;;;;8.45;4.30;;;;;;;;;;4994406;28;20177;-58
2023/05/01 12:32:13;;;;;;;6.57;4.53;;;;;;;;;;4994607;28;20233;-58
2023/05/01 12:34:39;;;;;;;5.20;4.03;;;;;;;;;;4995128;28;20200;-57
2023/05/01 12:37:05;;;;;;;6.82;4.28;;;;;;;;;;4994528;28;20181;-57
2023/05/01 12:39:39;;;;;;;8.32;3.90;;;;;;;;;;4993941;28;20192;-57
2023/05/01 12:42:12;;;;;;;7.47;4.43;;;;;;;;;;4995219;28;20243;-57
2023/05/01 12:44:38;;;;;;;10.60;4.50;;;;;;;;;;4994653;28;20247;-57
2023/05/01 12:47:06;;;;;;;6.63;4.55;;;;;;;;;;4994401;28;20636;-57
2023/05/01 12:49:32;;;;;;;8.90;4.00;;;;;;;;;;4994560;28;20217;-57
2023/05/01 12:52:02;;;;;;;6.30;3.95;;;;;;;;;;4993131;28;20189;-57
2023/05/01 12:54:29;;;;;;;6.80;3.83;;;;;;;;;;4994714;28;20193;-57
2023/05/01 12:57:13;;;;;;;6.95;4.25;;;;;;;;;;4993834;28;20181;-57
2023/05/01 12:59:40;;;;;;;6.53;4.32;;;;;;;;;;4989676;28;20188;-57
2023/05/01 13:02:09;;;;;;;10.95;4.55;;;;;;;;;;4994827;28;20279;-57
2023/05/01 13:04:36;;;;;;;7.00;4.22;;;;;;;;;;4992567;28;20229;-57
2023/05/01 13:07:02;;;;;;;6.60;3.72;;;;;;;;;;4986953;28;20216;-58
2023/05/01 13:09:31;;;;;;;5.03;3.58;;;;;;;;;;4994421;28;20476;-57
2023/05/01 13:11:57;;;;;;;5.70;3.67;;;;;;;;;;4994974;28;20177;-57
2023/05/01 13:14:24;;;;;;;5.25;4.13;;;;;;;;;;4995271;28;20177;-57
2023/05/01 13:16:50;;;;;;;6.07;4.07;;;;;;;;;;4995281;28;20177;-58
2023/05/01 13:19:28;;;;;;;6.63;4.47;;;;;;;;;;4994513;28;20284;-57
2023/05/01 13:21:55;;;;;;;5.90;4.03;;;;;;;;;;4995169;28;20189;-57
2023/05/01 13:24:22;;;;;;;5.60;4.20;;;;;;;;;;4994584;28;20189;-56
2023/05/01 13:26:48;;;;;;;7.28;3.83;;;;;;;;;;4994999;28;20280;-58
2023/05/01 13:29:14;;;;;;;5.28;3.83;;;;;;;;;;4994467;28;20500;-57
2023/05/01 13:31:44;;;;;;;5.38;4.18;;;;;;;;;;4995042;28;20189;-58
2023/05/01 13:34:11;;;;;;;4.43;3.58;;;;;;;;;;4994683;28;20177;-58
2023/05/01 13:36:39;;;;;;;5.00;3.92;;;;;;;;;;4995152;28;20188;-58
2023/05/01 13:39:05;;;;;;;5.00;4.30;;;;;;;;;;4994506;28;20217;-58
2023/05/01 13:41:31;;;;;;;6.13;4.22;;;;;;;;;;4995015;28;20185;-58
2023/05/01 13:43:58;;;;;;;4.40;4.00;;;;;;;;;;4994980;28;20177;-58
2023/05/01 13:46:26;;;;;;;7.30;4.28;;;;;;;;;;4995230;28;20268;-59
2023/05/01 13:48:52;;;;;;;6.05;4.20;;;;;;;;;;4993806;28;20189;-59
2023/05/01 13:51:22;;;;;;;6.63;4.07;;;;;;;;;;4994808;28;20185;-58
2023/05/01 13:53:49;;;;;;;4.70;4.00;;;;;;;;;;4994488;28;20189;-58
2023/05/01 13:56:15;;;;;;;5.97;4.03;;;;;;;;;;4994869;28;20256;-59
2023/05/01 13:58:41;;;;;;;4.45;3.78;;;;;;;;;;4992910;28;20192;-58
2023/05/01 14:01:14;;;;;;;4.72;3.58;;;;;;;;;;4993482;28;20181;-58
2023/05/01 14:03:41;;;;;;;6.05;4.43;;;;;;;;;;4991835;28;20185;-58
2023/05/01 14:06:14;;;;;;;6.28;4.35;;;;;;;;;;4976534;28;20217;-58
2023/05/01 14:08:40;;;;;;;4.47;3.55;;;;;;;;;;4993977;28;20304;-58
2023/05/01 14:11:08;;;;;;;5.28;3.50;;;;;;;;;;4994187;28;20223;-58
2023/05/01 14:13:41;;;;;;;5.30;3.88;;;;;;;;;;4995585;28;20201;-58
2023/05/01 14:16:10;;;;;;;6.15;3.80;;;;;;;;;;4994291;28;20281;-58
2023/05/01 14:18:43;;;;;;;6.72;4.40;;;;;;;;;;4993363;28;20193;-58
2023/05/01 14:21:10;;;;;;;5.85;4.20;;;;;;;;;;4993440;28;20177;-58
2023/05/01 14:23:36;;;;;;;5.07;3.97;;;;;;;;;;4994647;28;20580;-58
2023/05/01 14:26:02;;;;;;;8.07;4.45;;;;;;;;;;4994659;28;20185;-59
2023/05/01 14:28:29;;;;;;;7.72;4.60;;;;;;;;;;4993191;28;20209;-58
2023/05/01 14:30:55;;;;;;;6.63;4.30;;;;;;;;;;4993617;28;20216;-58